Погода Япахувана 2 недели

Северная Западная провинция, Шри-Ланка

04 - 17 марта
  • 04марта
    Сегодня
    +23°
    +37°
    Ясно и безоблачно
    ВремяПогодаТемператураВлажностьДавлениеВетер, м/сВероятность осадков
    02:30Ясно и безоблачно+25°C91 %744 мм0.4 м/с2 %
    05:30Практически безоблачно+24°C91 %745 мм0.3 м/с2 %
    08:30Ясно и безоблачно+27°C73 %746 мм0.6 м/с2 %
    11:30Ясно и безоблачно+34°C29 %746 мм1.5 м/с2 %
    14:30Ясно и безоблачно+37°C23 %743 мм2.2 м/с2 %
    17:30Ясно и безоблачно+32°C37 %743 мм1.9 м/с2 %
    20:30Ясно и безоблачно+27°C71 %746 мм0.6 м/с2 %
    23:30Ясно и безоблачно+26°C82 %746 мм0.6 м/с2 %
  • 05марта
    Вторник
    +25°
    +37°
    Небольшая облачность
    ВремяПогодаТемператураВлажностьДавлениеВетер, м/сВероятность осадков
    02:30Небольшая облачность+25°C87 %745 мм0.3 м/с2 %
    05:30Облачно с прояснениями+24°C94 %745 мм0.3 м/с2 %
    08:30Практически безоблачно+27°C67 %746 мм0.6 м/с2 %
    11:30Практически безоблачно+34°C43 %746 мм1.2 м/с2 %
    14:30Небольшая облачность+37°C29 %743 мм2.0 м/с1 %
    17:30Облачно с прояснениями+33°C40 %743 мм1.8 м/с3 %
    20:30Облачно с прояснениями+27°C74 %746 мм0.6 м/с7 %
    23:30Облачно с прояснениями+27°C77 %746 мм0.6 м/с14 %
  • 06марта
    Среда
    +24°
    +36°
    Облачно с прояснениями
    ВремяПогодаТемператураВлажностьДавлениеВетер, м/сВероятность осадков
    02:30Облачно с прояснениями+26°C84 %745 мм0.3 м/с15 %
    05:30Облачно с прояснениями+26°C89 %745 мм0.3 м/с13 %
    08:30Облачно с прояснениями+28°C75 %747 мм0.7 м/с16 %
    11:30Облачно с прояснениями+33°C51 %746 мм1.2 м/с24 %
    14:30Облачно с прояснениями+35°C41 %744 мм1.6 м/с14 %
    17:30Облачно с прояснениями+31°C57 %744 мм1.9 м/с22 %
    20:30Облачно с прояснениями+27°C73 %746 мм0.5 м/с17 %
    23:30Облачно с прояснениями+27°C79 %746 мм0.5 м/с8 %
  • 07марта
    Четверг
    +24°
    +37°
    Ясно и безоблачно
    ВремяПогодаТемператураВлажностьДавлениеВетер, м/сВероятность осадков
    02:30Облачно с прояснениями+26°C86 %744 мм0.2 м/с2 %
    05:30Облачно с прояснениями+25°C88 %744 мм0.3 м/с3 %
    08:30Облачно с прояснениями+28°C71 %746 мм0.7 м/с2 %
    11:30Облачно с прояснениями+34°C49 %746 мм1.3 м/с6 %
    14:30Ясно и безоблачно+36°C37 %744 мм1.9 м/с5 %
    17:30Облачно с прояснениями+33°C38 %743 мм1.6 м/с19 %
    20:30Облачно с прояснениями+28°C72 %746 мм0.7 м/с13 %
    23:30Практически безоблачно+27°C81 %746 мм0.5 м/с5 %
  • 08марта
    Пятница
    +24°
    +38°
    Небольшая облачность
    ВремяПогодаТемператураВлажностьДавлениеВетер, м/сВероятность осадков
    02:30Ясно и безоблачно+26°C88 %744 мм0.3 м/с4 %
    05:30Облачно с прояснениями+25°C95 %744 мм0.3 м/с2 %
    08:30Облачно с прояснениями+28°C74 %746 мм0.7 м/с2 %
    11:30Облачно с прояснениями+35°C44 %745 мм1.3 м/с6 %
    14:30Небольшая облачность+37°C26 %743 мм1.8 м/с6 %
    17:30Небольшая облачность+33°C33 %743 мм1.9 м/с23 %
    20:30Ясно и безоблачно+29°C71 %745 мм0.7 м/с14 %
    23:30Ясно и безоблачно+27°C81 %746 мм0.6 м/с12 %
Мы используем cookies
Соглашаюсь